createdAt,value
2022-12-26T00:00:42.156Z,99056.00
2022-12-26T00:01:42.145Z,99053.00
2022-12-26T00:02:42.342Z,99060.00
2022-12-26T00:03:42.245Z,99062.00
2022-12-26T00:04:50.657Z,99060.00
2022-12-26T00:05:42.150Z,99062.00
2022-12-26T00:06:42.126Z,99058.00
2022-12-26T00:07:42.131Z,99059.00
2022-12-26T00:08:42.152Z,99057.00
2022-12-26T00:09:42.190Z,99053.00
2022-12-26T00:10:42.193Z,99049.00
2022-12-26T00:11:42.223Z,99039.00
2022-12-26T00:12:42.257Z,99036.00
2022-12-26T00:13:42.216Z,99039.00
2022-12-26T00:14:42.249Z,99041.00
2022-12-26T00:15:42.261Z,99042.00
2022-12-26T00:16:42.372Z,99040.00
2022-12-26T00:17:42.474Z,99041.00
2022-12-26T00:18:42.332Z,99030.00
2022-12-26T00:19:42.345Z,99030.00
2022-12-26T00:20:42.343Z,99025.00
2022-12-26T00:21:42.386Z,99032.00
2022-12-26T00:22:42.368Z,99028.00
2022-12-26T00:23:42.395Z,99025.00
2022-12-26T00:24:42.398Z,99030.00
2022-12-26T00:25:42.445Z,99031.00
2022-12-26T00:26:42.459Z,99031.00
2022-12-26T00:27:42.488Z,99041.00
2022-12-26T00:28:42.505Z,99042.00
2022-12-26T00:29:42.526Z,99037.00
2022-12-26T00:30:42.549Z,99041.00
2022-12-26T00:31:42.656Z,99039.00
2022-12-26T00:32:42.581Z,99040.00
2022-12-26T00:33:42.594Z,99048.00
2022-12-26T00:34:42.630Z,99045.00
2022-12-26T00:35:42.615Z,99042.00
2022-12-26T00:36:42.640Z,99041.00
2022-12-26T00:37:42.671Z,99043.00
2022-12-26T00:38:42.693Z,99045.00
2022-12-26T00:39:42.719Z,99050.00
2022-12-26T00:40:42.742Z,99045.00
2022-12-26T00:41:42.768Z,99039.00
2022-12-26T00:42:42.779Z,99044.00
2022-12-26T00:43:42.812Z,99045.00
2022-12-26T00:44:42.817Z,99044.00
2022-12-26T00:45:42.839Z,99043.00
2022-12-26T00:46:42.991Z,99044.00
2022-12-26T00:47:42.861Z,99042.00
2022-12-26T00:48:42.876Z,99043.00
2022-12-26T00:50:14.984Z,99044.00
2022-12-26T00:50:42.891Z,99051.00
2022-12-26T00:51:42.921Z,99060.00
2022-12-26T00:52:42.934Z,99060.00
2022-12-26T00:53:43.009Z,99063.00
2022-12-26T00:54:42.965Z,99059.00
2022-12-26T00:55:42.975Z,99053.00
2022-12-26T00:56:43.040Z,99058.00
2022-12-26T00:57:43.024Z,99052.00
2022-12-26T00:58:43.023Z,99041.00
2022-12-26T00:59:43.053Z,99037.00
2022-12-26T01:00:43.141Z,99029.00
2022-12-26T01:01:43.481Z,99027.00
2022-12-26T01:02:43.287Z,99031.00
2022-12-26T01:03:43.111Z,99026.00
2022-12-26T01:04:43.115Z,99029.00
2022-12-26T01:05:43.143Z,99019.00
2022-12-26T01:06:43.182Z,99012.00
2022-12-26T01:08:20.089Z,99009.00
2022-12-26T01:08:43.162Z,99019.00
2022-12-26T01:09:43.122Z,99021.00
2022-12-26T01:10:43.133Z,99031.00
2022-12-26T01:11:43.159Z,99032.00
2022-12-26T01:12:43.185Z,99031.00
2022-12-26T01:13:43.229Z,99032.00
2022-12-26T01:14:43.205Z,99032.00
2022-12-26T01:15:43.234Z,99027.00
2022-12-26T01:16:43.337Z,99033.00
2022-12-26T01:17:43.198Z,99035.00
2022-12-26T01:18:43.211Z,99028.00
2022-12-26T01:19:43.228Z,99029.00
2022-12-26T01:20:43.240Z,99031.00
2022-12-26T01:21:43.340Z,99040.00
2022-12-26T01:22:43.253Z,99045.00
2022-12-26T01:23:43.270Z,99050.00
2022-12-26T01:24:43.301Z,99046.00
2022-12-26T01:26:19.171Z,99050.00
2022-12-26T01:26:43.347Z,99057.00
2022-12-26T01:27:43.314Z,99060.00
2022-12-26T01:28:43.334Z,99061.00
2022-12-26T01:29:43.388Z,99058.00
2022-12-26T01:30:43.342Z,99059.00
2022-12-26T01:31:43.448Z,99052.00
2022-12-26T01:32:43.377Z,99052.00
2022-12-26T01:33:43.390Z,99046.00
2022-12-26T01:34:43.410Z,99055.00
2022-12-26T01:35:43.414Z,99056.00
2022-12-26T01:36:43.417Z,99056.00
2022-12-26T01:37:43.431Z,99049.00
2022-12-26T01:38:43.440Z,99049.00
2022-12-26T01:39:43.468Z,99048.00
2022-12-26T01:40:43.485Z,99043.00
2022-12-26T01:41:43.519Z,99047.00
2022-12-26T01:42:43.548Z,99046.00
2022-12-26T01:43:43.549Z,99050.00
2022-12-26T01:44:43.565Z,99045.00
2022-12-26T01:45:43.629Z,99040.00
2022-12-26T01:46:43.605Z,99039.00
2022-12-26T01:47:43.632Z,99032.00
2022-12-26T01:48:43.639Z,99033.00
2022-12-26T01:49:43.667Z,99034.00
2022-12-26T01:50:43.685Z,99038.00
2022-12-26T01:51:43.681Z,99030.00
2022-12-26T01:52:43.699Z,99029.00
2022-12-26T01:53:43.733Z,99031.00
2022-12-26T01:54:43.757Z,99035.00
2022-12-26T01:55:43.775Z,99035.00
2022-12-26T01:56:43.789Z,99035.00
2022-12-26T01:57:43.794Z,99037.00
2022-12-26T01:58:43.812Z,99039.00
2022-12-26T01:59:43.826Z,99043.00
2022-12-26T02:00:43.904Z,99049.00
2022-12-26T02:01:44.157Z,99046.00
2022-12-26T02:02:44.042Z,99050.00
2022-12-26T02:03:43.961Z,99051.00
2022-12-26T02:04:43.913Z,99042.00
2022-12-26T02:05:43.937Z,99046.00
2022-12-26T02:06:43.933Z,99045.00
2022-12-26T02:07:43.955Z,99050.00
2022-12-26T02:08:43.925Z,99051.00
2022-12-26T02:09:44.000Z,99042.00
2022-12-26T02:10:43.956Z,99040.00
2022-12-26T02:11:43.988Z,99046.00
2022-12-26T02:12:44.008Z,99044.00
2022-12-26T02:13:44.019Z,99051.00
2022-12-26T02:14:44.028Z,99056.00
2022-12-26T02:15:44.052Z,99054.00
2022-12-26T02:16:44.154Z,99050.00
2022-12-26T02:17:44.152Z,99047.00
2022-12-26T02:18:44.076Z,99050.00
2022-12-26T02:19:44.098Z,99049.00
2022-12-26T02:20:44.127Z,99051.00
2022-12-26T02:21:44.168Z,99048.00
2022-12-26T02:22:44.123Z,99047.00
2022-12-26T02:23:44.151Z,99045.00
2022-12-26T02:24:44.164Z,99046.00
2022-12-26T02:25:44.196Z,99039.00
2022-12-26T02:26:44.223Z,99033.00
2022-12-26T02:27:44.229Z,99033.00
2022-12-26T02:28:44.245Z,99025.00
2022-12-26T02:29:44.255Z,99023.00
2022-12-26T02:30:44.262Z,99027.00
2022-12-26T02:31:44.388Z,99029.00
2022-12-26T02:32:44.295Z,99031.00
2022-12-26T02:33:44.341Z,99035.00
2022-12-26T02:34:44.350Z,99038.00
2022-12-26T02:35:44.364Z,99039.00
2022-12-26T02:36:44.367Z,99040.00
2022-12-26T02:37:44.403Z,99045.00
2022-12-26T02:38:44.421Z,99043.00
2022-12-26T02:39:46.649Z,99037.00
2022-12-26T02:40:44.470Z,99038.00
2022-12-26T02:41:44.440Z,99037.00
2022-12-26T02:42:44.447Z,99038.00
2022-12-26T02:43:44.449Z,99040.00
2022-12-26T02:44:44.463Z,99040.00
2022-12-26T02:45:44.583Z,99038.00
2022-12-26T02:46:44.521Z,99036.00
2022-12-26T02:47:44.530Z,99039.00
2022-12-26T02:48:44.532Z,99041.00
2022-12-26T02:49:44.577Z,99044.00
2022-12-26T02:50:44.552Z,99046.00
2022-12-26T02:51:44.556Z,99044.00
2022-12-26T02:52:44.563Z,99045.00
2022-12-26T02:53:44.579Z,99047.00
2022-12-26T02:54:44.599Z,99053.00
2022-12-26T02:55:44.620Z,99052.00
2022-12-26T02:56:44.664Z,99054.00
2022-12-26T02:57:44.695Z,99058.00
2022-12-26T02:58:44.715Z,99065.00
2022-12-26T02:59:55.975Z,99060.00
2022-12-26T03:00:44.875Z,99062.00
2022-12-26T03:01:44.965Z,99065.00
2022-12-26T03:02:44.847Z,99059.00
2022-12-26T03:03:44.718Z,99054.00
2022-12-26T03:04:44.737Z,99061.00
2022-12-26T03:05:45.045Z,99056.00
2022-12-26T03:06:44.779Z,99055.00
2022-12-26T03:07:44.788Z,99054.00
2022-12-26T03:08:44.791Z,99042.00
2022-12-26T03:09:44.795Z,99044.00
2022-12-26T03:10:44.804Z,99041.00
2022-12-26T03:11:44.817Z,99038.00
2022-12-26T03:12:44.840Z,99040.00
2022-12-26T03:13:44.835Z,99043.00
2022-12-26T03:14:44.841Z,99047.00
2022-12-26T03:15:44.868Z,99041.00
2022-12-26T03:16:44.962Z,99033.00
2022-12-26T03:17:44.888Z,99040.00
2022-12-26T03:18:57.044Z,99041.00
2022-12-26T03:19:44.926Z,99046.00
2022-12-26T03:20:44.956Z,99045.00
2022-12-26T03:21:44.947Z,99049.00
2022-12-26T03:22:44.949Z,99049.00
2022-12-26T03:23:44.963Z,99050.00
2022-12-26T03:24:44.977Z,99048.00
2022-12-26T03:25:44.996Z,99051.00
2022-12-26T03:26:45.014Z,99040.00
2022-12-26T03:27:45.042Z,99040.00
2022-12-26T03:28:45.050Z,99036.00
2022-12-26T03:29:45.052Z,99034.00
2022-12-26T03:30:45.129Z,99036.00
2022-12-26T03:31:45.059Z,99034.00
2022-12-26T03:32:45.082Z,99035.00
2022-12-26T03:33:45.116Z,99032.00
2022-12-26T03:34:45.167Z,99038.00
2022-12-26T03:35:45.152Z,99038.00
2022-12-26T03:36:45.146Z,99033.00
2022-12-26T03:37:48.910Z,99034.00
2022-12-26T03:38:45.173Z,99038.00
2022-12-26T03:39:45.214Z,99043.00
2022-12-26T03:40:45.239Z,99041.00
2022-12-26T03:41:45.212Z,99039.00
2022-12-26T03:42:45.234Z,99042.00
2022-12-26T03:43:45.255Z,99040.00
2022-12-26T03:44:48.767Z,99040.00
2022-12-26T03:45:45.296Z,99048.00
2022-12-26T03:46:45.276Z,99044.00
2022-12-26T03:47:45.296Z,99042.00
2022-12-26T03:48:45.312Z,99040.00
2022-12-26T03:49:45.336Z,99042.00
2022-12-26T03:50:45.363Z,99049.00
2022-12-26T03:51:45.377Z,99047.00
2022-12-26T03:52:45.386Z,99050.00
2022-12-26T03:53:45.440Z,99052.00
2022-12-26T03:54:45.476Z,99057.00
2022-12-26T03:55:45.460Z,99058.00
2022-12-26T03:56:45.429Z,99059.00
2022-12-26T03:57:45.455Z,99061.00
2022-12-26T03:58:45.463Z,99053.00
2022-12-26T03:59:45.585Z,99064.00
2022-12-26T04:00:45.518Z,99067.00
2022-12-26T04:01:45.638Z,99062.00
2022-12-26T04:02:45.547Z,99049.00
2022-12-26T04:03:45.598Z,99059.00
2022-12-26T04:04:45.588Z,99057.00
2022-12-26T04:05:45.738Z,99059.00
2022-12-26T04:06:45.601Z,99055.00
2022-12-26T04:07:56.255Z,99057.00
2022-12-26T04:08:45.634Z,99048.00
2022-12-26T04:09:45.666Z,99051.00
2022-12-26T04:10:45.677Z,99043.00
2022-12-26T04:11:45.666Z,99042.00
2022-12-26T04:12:45.684Z,99036.00
2022-12-26T04:13:45.710Z,99037.00
2022-12-26T04:14:45.732Z,99032.00
2022-12-26T04:15:45.824Z,99033.00
2022-12-26T04:16:45.776Z,99036.00
2022-12-26T04:17:45.791Z,99040.00
2022-12-26T04:18:45.800Z,99040.00
2022-12-26T04:19:45.812Z,99042.00
2022-12-26T04:20:45.822Z,99039.00
2022-12-26T04:21:45.836Z,99034.00
2022-12-26T04:22:46.084Z,99027.00
2022-12-26T04:23:45.859Z,99032.00
2022-12-26T04:24:45.860Z,99030.00
2022-12-26T04:25:50.689Z,99031.00
2022-12-26T04:26:45.884Z,99030.00
2022-12-26T04:27:45.898Z,99032.00
2022-12-26T04:28:45.922Z,99027.00
2022-12-26T04:29:45.940Z,99039.00
2022-12-26T04:30:46.071Z,99044.00
2022-12-26T04:31:46.001Z,99047.00
2022-12-26T04:32:46.004Z,99050.00
2022-12-26T04:33:46.028Z,99052.00
2022-12-26T04:34:46.064Z,99052.00
2022-12-26T04:35:46.077Z,99052.00
2022-12-26T04:36:46.098Z,99054.00
2022-12-26T04:37:46.125Z,99053.00
2022-12-26T04:38:46.136Z,99048.00
2022-12-26T04:39:46.158Z,99046.00
2022-12-26T04:40:46.179Z,99043.00
2022-12-26T04:41:46.179Z,99049.00
2022-12-26T04:42:46.179Z,99051.00
2022-12-26T04:43:49.785Z,99041.00
2022-12-26T04:44:46.180Z,99052.00
2022-12-26T04:45:46.211Z,99045.00
2022-12-26T04:46:46.365Z,99048.00
2022-12-26T04:47:46.198Z,99050.00
2022-12-26T04:48:46.208Z,99053.00
2022-12-26T04:49:46.227Z,99053.00
2022-12-26T04:50:46.250Z,99048.00
2022-12-26T04:51:46.290Z,99054.00
2022-12-26T04:52:46.299Z,99054.00
2022-12-26T04:53:46.592Z,99057.00
2022-12-26T04:54:46.344Z,99061.00
2022-12-26T04:55:46.385Z,99061.00
2022-12-26T04:56:46.365Z,99055.00
2022-12-26T04:57:46.404Z,99057.00
2022-12-26T04:58:46.415Z,99067.00
2022-12-26T04:59:46.427Z,99060.00
2022-12-26T05:00:46.459Z,99057.00
2022-12-26T05:01:46.563Z,99056.00
2022-12-26T05:02:46.675Z,99057.00
2022-12-26T05:03:46.620Z,99046.00
2022-12-26T05:04:46.547Z,99051.00
2022-12-26T05:05:46.583Z,99049.00
2022-12-26T05:06:46.599Z,99052.00
2022-12-26T05:07:46.629Z,99036.00
2022-12-26T05:08:46.637Z,99032.00
2022-12-26T05:09:46.644Z,99031.00
2022-12-26T05:10:46.679Z,99030.00
2022-12-26T05:11:46.705Z,99030.00
2022-12-26T05:12:46.743Z,99035.00
2022-12-26T05:13:46.775Z,99034.00
2022-12-26T05:14:46.776Z,99031.00
2022-12-26T05:15:46.837Z,99035.00
2022-12-26T05:16:46.772Z,99037.00
2022-12-26T05:17:46.807Z,99042.00
2022-12-26T05:18:46.830Z,99050.00
2022-12-26T05:19:46.833Z,99058.00
2022-12-26T05:20:46.871Z,99057.00
2022-12-26T05:21:46.890Z,99056.00
2022-12-26T05:22:46.910Z,99063.00
2022-12-26T05:23:46.965Z,99062.00
2022-12-26T05:24:46.939Z,99061.00
2022-12-26T05:25:46.950Z,99058.00
2022-12-26T05:26:46.982Z,99053.00
2022-12-26T05:27:47.009Z,99058.00
2022-12-26T05:28:46.989Z,99053.00
2022-12-26T05:29:47.035Z,99057.00
2022-12-26T05:30:47.071Z,99062.00
2022-12-26T05:31:47.070Z,99068.00
2022-12-26T05:32:47.060Z,99071.00
2022-12-26T05:33:47.085Z,99075.00
2022-12-26T05:34:47.097Z,99075.00
2022-12-26T05:35:47.121Z,99074.00
2022-12-26T05:36:47.363Z,99067.00
2022-12-26T05:37:47.142Z,99076.00
2022-12-26T05:38:47.141Z,99079.00
2022-12-26T05:39:47.167Z,99078.00
2022-12-26T05:40:47.192Z,99079.00
2022-12-26T05:41:47.196Z,99078.00
2022-12-26T05:42:47.212Z,99075.00
2022-12-26T05:43:47.221Z,99073.00
2022-12-26T05:44:47.231Z,99071.00
2022-12-26T05:45:47.281Z,99069.00
2022-12-26T05:46:47.339Z,99074.00
2022-12-26T05:47:51.853Z,99071.00
2022-12-26T05:48:47.301Z,99068.00
2022-12-26T05:49:47.315Z,99070.00
2022-12-26T05:50:47.335Z,99065.00
2022-12-26T05:51:47.377Z,99068.00
2022-12-26T05:52:47.382Z,99061.00
2022-12-26T05:53:47.395Z,99058.00
2022-12-26T05:54:47.418Z,99052.00
2022-12-26T05:55:47.456Z,99055.00
2022-12-26T05:56:49.400Z,99049.00
2022-12-26T05:57:47.475Z,99048.00
2022-12-26T05:58:47.534Z,99048.00
2022-12-26T05:59:47.507Z,99045.00
2022-12-26T06:02:13.499Z,99052.00
2022-12-26T06:03:13.537Z,99050.00
2022-12-26T06:04:13.419Z,99059.00
2022-12-26T06:05:13.441Z,99055.00
2022-12-26T06:06:13.456Z,99056.00
2022-12-26T06:07:13.473Z,99054.00
2022-12-26T06:08:13.498Z,99059.00
2022-12-26T06:09:13.524Z,99056.00
2022-12-26T06:10:13.546Z,99055.00
2022-12-26T06:11:13.560Z,99051.00
2022-12-26T06:12:13.579Z,99050.00
2022-12-26T06:13:13.605Z,99054.00
2022-12-26T06:14:13.617Z,99051.00
2022-12-26T06:15:13.662Z,99050.00
2022-12-26T06:16:13.740Z,99046.00
2022-12-26T06:17:13.679Z,99047.00
2022-12-26T06:18:13.672Z,99046.00
2022-12-26T06:19:13.681Z,99043.00
2022-12-26T06:20:13.706Z,99050.00
2022-12-26T06:21:13.711Z,99048.00
2022-12-26T06:22:13.760Z,99046.00
2022-12-26T06:23:13.791Z,99044.00
2022-12-26T06:24:13.804Z,99043.00
2022-12-26T06:25:13.798Z,99044.00
2022-12-26T06:26:13.823Z,99043.00
2022-12-26T06:27:13.851Z,99045.00
2022-12-26T06:28:13.861Z,99048.00
2022-12-26T06:29:13.884Z,99040.00
2022-12-26T06:30:13.892Z,99040.00
2022-12-26T06:31:13.950Z,99043.00
2022-12-26T06:32:13.952Z,99049.00
2022-12-26T06:33:13.921Z,99047.00
2022-12-26T06:34:13.937Z,99049.00
2022-12-26T06:35:13.946Z,99043.00
2022-12-26T06:36:13.957Z,99044.00
2022-12-26T06:37:13.982Z,99039.00
2022-12-26T06:38:13.998Z,99044.00
2022-12-26T06:39:14.015Z,99046.00
2022-12-26T06:40:14.036Z,99038.00
2022-12-26T06:41:14.053Z,99039.00
2022-12-26T06:42:14.087Z,99045.00
2022-12-26T06:43:14.126Z,99043.00
2022-12-26T06:44:18.091Z,99047.00
2022-12-26T06:45:14.088Z,99045.00
2022-12-26T06:46:14.301Z,99041.00
2022-12-26T06:47:14.223Z,99053.00
2022-12-26T06:48:14.115Z,99053.00
2022-12-26T06:49:14.133Z,99054.00
2022-12-26T06:50:14.195Z,99053.00
2022-12-26T06:51:14.160Z,99055.00
2022-12-26T06:52:14.168Z,99055.00
2022-12-26T06:53:14.181Z,99056.00
2022-12-26T06:54:14.196Z,99054.00
2022-12-26T06:55:14.195Z,99058.00
2022-12-26T06:56:14.211Z,99053.00
2022-12-26T06:57:14.235Z,99057.00
2022-12-26T06:58:14.287Z,99061.00
2022-12-26T06:59:14.261Z,99058.00
2022-12-26T07:00:14.293Z,99066.00
2022-12-26T07:01:14.448Z,99068.00
2022-12-26T07:02:14.423Z,99070.00
2022-12-26T07:03:14.402Z,99080.00
2022-12-26T07:04:14.345Z,99082.00
2022-12-26T07:05:14.382Z,99073.00
2022-12-26T07:06:14.407Z,99072.00
2022-12-26T07:07:14.409Z,99072.00
2022-12-26T07:08:14.428Z,99074.00
2022-12-26T07:09:14.686Z,99072.00
2022-12-26T07:10:14.447Z,99081.00
2022-12-26T07:11:14.474Z,99075.00
2022-12-26T07:12:14.446Z,99081.00
2022-12-26T07:13:14.480Z,99072.00
2022-12-26T07:14:14.497Z,99085.00
2022-12-26T07:15:14.511Z,99085.00
2022-12-26T07:16:14.580Z,99087.00
2022-12-26T07:17:14.544Z,99088.00
2022-12-26T07:18:14.589Z,99089.00
2022-12-26T07:19:14.569Z,99098.00
2022-12-26T07:20:14.566Z,99096.00
2022-12-26T07:21:14.583Z,99094.00
2022-12-26T07:22:14.616Z,99087.00
2022-12-26T07:23:14.637Z,99092.00
2022-12-26T07:24:14.645Z,99091.00
2022-12-26T07:25:14.686Z,99084.00
2022-12-26T07:26:14.704Z,99079.00
2022-12-26T07:27:14.708Z,99077.00
2022-12-26T07:28:14.729Z,99082.00
2022-12-26T07:29:14.704Z,99075.00
2022-12-26T07:30:14.729Z,99079.00
2022-12-26T07:31:14.837Z,99077.00
2022-12-26T07:32:14.828Z,99078.00
2022-12-26T07:33:14.770Z,99083.00
2022-12-26T07:34:14.768Z,99086.00
2022-12-26T07:35:14.800Z,99089.00
2022-12-26T07:36:14.836Z,99099.00
2022-12-26T07:37:14.804Z,99098.00
2022-12-26T07:38:14.878Z,99098.00
2022-12-26T07:39:14.916Z,99102.00
2022-12-26T07:40:14.840Z,99105.00
2022-12-26T07:41:14.867Z,99098.00
2022-12-26T07:42:14.872Z,99105.00
2022-12-26T07:43:14.908Z,99108.00
2022-12-26T07:44:14.924Z,99109.00
2022-12-26T07:45:14.939Z,99108.00
2022-12-26T07:46:15.016Z,99105.00
2022-12-26T07:47:14.986Z,99104.00
2022-12-26T07:48:15.017Z,99111.00
2022-12-26T07:49:15.031Z,99109.00
2022-12-26T07:50:15.061Z,99115.00
2022-12-26T07:51:15.049Z,99122.00
2022-12-26T07:52:15.084Z,99119.00
2022-12-26T07:53:15.062Z,99123.00
2022-12-26T07:54:15.244Z,99127.00
2022-12-26T07:55:15.071Z,99124.00
2022-12-26T07:56:15.076Z,99131.00
2022-12-26T07:57:46.958Z,99135.00
2022-12-26T07:58:15.083Z,99129.00
2022-12-26T07:59:15.109Z,99130.00
2022-12-26T08:00:15.117Z,99133.00
2022-12-26T08:01:15.225Z,99127.00
2022-12-26T08:02:15.486Z,99126.00
2022-12-26T08:03:15.494Z,99129.00
2022-12-26T08:04:15.194Z,99129.00
2022-12-26T08:05:15.197Z,99133.00
2022-12-26T08:06:15.220Z,99132.00
2022-12-26T08:07:15.246Z,99131.00
2022-12-26T08:08:15.232Z,99134.00
2022-12-26T08:09:15.241Z,99134.00
2022-12-26T08:10:15.281Z,99132.00
2022-12-26T08:11:15.250Z,99139.00
2022-12-26T08:12:15.287Z,99127.00
2022-12-26T08:13:15.257Z,99126.00
2022-12-26T08:14:15.288Z,99124.00
2022-12-26T08:15:15.290Z,99126.00
2022-12-26T08:16:15.421Z,99133.00
2022-12-26T08:17:15.377Z,99140.00
2022-12-26T08:18:15.282Z,99132.00
2022-12-26T08:19:15.307Z,99128.00
2022-12-26T08:20:15.331Z,99132.00
2022-12-26T08:21:15.360Z,99130.00
2022-12-26T08:22:15.435Z,99128.00
2022-12-26T08:23:15.413Z,99123.00
2022-12-26T08:24:15.397Z,99121.00
2022-12-26T08:25:18.319Z,99128.00
2022-12-26T08:26:15.427Z,99121.00
2022-12-26T08:27:15.398Z,99128.00
2022-12-26T08:28:15.431Z,99132.00
2022-12-26T08:29:15.395Z,99138.00
2022-12-26T08:30:15.416Z,99146.00
2022-12-26T08:31:15.409Z,99140.00
2022-12-26T08:32:15.465Z,99138.00
2022-12-26T08:33:15.422Z,99143.00
2022-12-26T08:34:15.429Z,99148.00
2022-12-26T08:35:15.457Z,99146.00
2022-12-26T08:36:15.470Z,99147.00
2022-12-26T08:37:15.509Z,99144.00
2022-12-26T08:38:15.486Z,99145.00
2022-12-26T08:39:15.491Z,99143.00
2022-12-26T08:40:26.734Z,99141.00
2022-12-26T08:41:15.511Z,99145.00
2022-12-26T08:42:15.553Z,99145.00
2022-12-26T08:43:39.145Z,99148.00
2022-12-26T08:44:26.673Z,99141.00
2022-12-26T08:45:15.550Z,99140.00
2022-12-26T08:46:15.612Z,99145.00
2022-12-26T08:47:15.594Z,99145.00
2022-12-26T08:48:15.608Z,99145.00
2022-12-26T08:49:15.616Z,99149.00
2022-12-26T08:50:15.620Z,99145.00
2022-12-26T08:51:15.649Z,99142.00
2022-12-26T08:52:15.666Z,99147.00
2022-12-26T08:53:15.619Z,99143.00
2022-12-26T08:54:15.636Z,99147.00
2022-12-26T08:55:15.648Z,99147.00
2022-12-26T08:56:15.678Z,99136.00
2022-12-26T08:57:15.701Z,99146.00
2022-12-26T08:58:15.820Z,99151.00
2022-12-26T08:59:15.741Z,99150.00
2022-12-26T09:00:15.747Z,99149.00
2022-12-26T09:01:15.922Z,99147.00
2022-12-26T09:02:15.885Z,99142.00
2022-12-26T09:03:15.827Z,99153.00
2022-12-26T09:04:15.819Z,99156.00
2022-12-26T09:05:15.823Z,99156.00
2022-12-26T09:06:15.840Z,99160.00
2022-12-26T09:07:15.842Z,99162.00
2022-12-26T09:08:15.871Z,99173.00
2022-12-26T09:09:15.900Z,99174.00
2022-12-26T09:10:15.905Z,99171.00
2022-12-26T09:11:15.924Z,99167.00
2022-12-26T09:12:16.202Z,99171.00
2022-12-26T09:13:15.967Z,99167.00
2022-12-26T09:14:15.995Z,99166.00
2022-12-26T09:15:16.000Z,99167.00
2022-12-26T09:16:16.017Z,99164.00
2022-12-26T09:17:16.184Z,99168.00
2022-12-26T09:18:16.046Z,99171.00
2022-12-26T09:19:16.058Z,99174.00
2022-12-26T09:20:16.059Z,99175.00
2022-12-26T09:21:16.096Z,99180.00
2022-12-26T09:22:16.112Z,99181.00
2022-12-26T09:23:16.120Z,99179.00
2022-12-26T09:24:16.145Z,99176.00
2022-12-26T09:25:16.191Z,99170.00
2022-12-26T09:26:16.162Z,99183.00
2022-12-26T09:27:16.200Z,99189.00
2022-12-26T09:28:16.217Z,99190.00
2022-12-26T09:29:16.234Z,99200.00
2022-12-26T09:30:16.292Z,99202.00
2022-12-26T09:31:16.310Z,99200.00
2022-12-26T09:32:16.304Z,99204.00
2022-12-26T09:33:16.279Z,99201.00
2022-12-26T09:34:16.317Z,99205.00
2022-12-26T09:35:16.341Z,99204.00
2022-12-26T09:36:16.312Z,99202.00
2022-12-26T09:37:16.357Z,99211.00
2022-12-26T09:38:16.343Z,99210.00
2022-12-26T09:39:16.347Z,99211.00
2022-12-26T09:40:16.373Z,99214.00
2022-12-26T09:41:16.396Z,99214.00
2022-12-26T09:42:16.438Z,99214.00
2022-12-26T09:43:16.402Z,99211.00
2022-12-26T09:44:16.445Z,99211.00
2022-12-26T09:45:16.416Z,99208.00
2022-12-26T09:46:16.515Z,99207.00
2022-12-26T09:47:16.468Z,99210.00
2022-12-26T09:48:16.498Z,99208.00
2022-12-26T09:49:16.529Z,99209.00
2022-12-26T09:50:16.505Z,99210.00
2022-12-26T09:51:16.532Z,99210.00
2022-12-26T09:52:16.541Z,99212.00
2022-12-26T09:53:16.550Z,99219.00
2022-12-26T09:54:16.568Z,99218.00
2022-12-26T09:55:16.624Z,99212.00
2022-12-26T09:56:53.185Z,99216.00
2022-12-26T09:57:16.608Z,99215.00
2022-12-26T09:58:16.588Z,99214.00
2022-12-26T09:59:16.604Z,99212.00
2022-12-26T10:00:16.628Z,99212.00
2022-12-26T10:01:16.919Z,99211.00
2022-12-26T10:02:16.837Z,99218.00
2022-12-26T10:03:16.666Z,99215.00
2022-12-26T10:04:16.766Z,99208.00
2022-12-26T10:05:16.686Z,99212.00
2022-12-26T10:06:16.723Z,99210.00
2022-12-26T10:07:16.744Z,99206.00
2022-12-26T10:08:16.727Z,99205.00
2022-12-26T10:09:16.698Z,99202.00
2022-12-26T10:10:16.714Z,99206.00
2022-12-26T10:11:16.747Z,99206.00
2022-12-26T10:12:16.780Z,99210.00
2022-12-26T10:13:16.797Z,99210.00
2022-12-26T10:14:21.587Z,99210.00
2022-12-26T10:15:16.838Z,99210.00
2022-12-26T10:16:16.899Z,99211.00
2022-12-26T10:17:16.833Z,99220.00
2022-12-26T10:18:16.845Z,99228.00
2022-12-26T10:19:16.857Z,99230.00
2022-12-26T10:20:16.874Z,99233.00
2022-12-26T10:21:16.896Z,99231.00
2022-12-26T10:22:16.909Z,99232.00
2022-12-26T10:23:16.896Z,99231.00
2022-12-26T10:24:16.868Z,99232.00
2022-12-26T10:25:16.901Z,99234.00
2022-12-26T10:26:16.923Z,99239.00
2022-12-26T10:27:16.972Z,99239.00
2022-12-26T10:28:16.957Z,99235.00
2022-12-26T10:29:16.960Z,99229.00
2022-12-26T10:30:16.995Z,99234.00
2022-12-26T10:31:17.124Z,99234.00
2022-12-26T10:32:18.091Z,99228.00
2022-12-26T10:33:17.079Z,99227.00
2022-12-26T10:34:17.082Z,99227.00
2022-12-26T10:35:17.057Z,99220.00
2022-12-26T10:36:17.090Z,99228.00
2022-12-26T10:37:17.114Z,99226.00
2022-12-26T10:38:18.718Z,99230.00
2022-12-26T10:39:17.126Z,99233.00
2022-12-26T10:40:17.161Z,99232.00
2022-12-26T10:41:17.137Z,99229.00
2022-12-26T10:42:17.182Z,99224.00
2022-12-26T10:43:17.149Z,99224.00
2022-12-26T10:44:18.093Z,99225.00
2022-12-26T10:45:17.203Z,99219.00
2022-12-26T10:46:17.254Z,99220.00
2022-12-26T10:47:17.256Z,99219.00
2022-12-26T10:48:17.236Z,99216.00
2022-12-26T10:49:17.247Z,99219.00
2022-12-26T10:50:19.417Z,99220.00
2022-12-26T10:51:17.294Z,99218.00
2022-12-26T10:52:17.299Z,99218.00
2022-12-26T10:53:17.271Z,99216.00
2022-12-26T10:54:17.301Z,99221.00
2022-12-26T10:55:28.144Z,99224.00
2022-12-26T10:56:18.502Z,99229.00
2022-12-26T10:57:17.671Z,99224.00
2022-12-26T10:58:17.359Z,99222.00
2022-12-26T10:59:17.414Z,99217.00
2022-12-26T11:00:17.380Z,99218.00
2022-12-26T11:01:17.522Z,99222.00
2022-12-26T11:02:17.714Z,99213.00
2022-12-26T11:03:17.627Z,99213.00
2022-12-26T11:04:31.417Z,99220.00
2022-12-26T11:05:57.450Z,99229.00
2022-12-26T11:06:17.445Z,99242.00
2022-12-26T11:07:17.414Z,99249.00
2022-12-26T11:08:17.419Z,99250.00
2022-12-26T11:09:17.450Z,99255.00
2022-12-26T11:10:17.530Z,99257.00
2022-12-26T11:11:17.464Z,99255.00
2022-12-26T11:12:17.488Z,99251.00
2022-12-26T11:13:17.525Z,99244.00
2022-12-26T11:14:17.493Z,99244.00
2022-12-26T11:15:17.526Z,99243.00
2022-12-26T11:16:17.799Z,99246.00
2022-12-26T11:17:17.560Z,99252.00
2022-12-26T11:18:17.595Z,99244.00
2022-12-26T11:19:17.613Z,99245.00
2022-12-26T11:20:17.695Z,99240.00
2022-12-26T11:21:17.658Z,99234.00
2022-12-26T11:22:17.660Z,99233.00
2022-12-26T11:23:17.661Z,99233.00
2022-12-26T11:24:17.662Z,99236.00
2022-12-26T11:25:17.711Z,99234.00
2022-12-26T11:26:17.688Z,99240.00
2022-12-26T11:27:17.713Z,99247.00
2022-12-26T11:28:17.754Z,99259.00
2022-12-26T11:29:17.744Z,99259.00
2022-12-26T11:30:17.753Z,99248.00
2022-12-26T11:31:17.756Z,99241.00
2022-12-26T11:32:17.752Z,99248.00
2022-12-26T11:33:17.784Z,99248.00
2022-12-26T11:34:17.793Z,99251.00
2022-12-26T11:35:17.822Z,99250.00
2022-12-26T11:36:17.855Z,99246.00
2022-12-26T11:37:17.874Z,99237.00
2022-12-26T11:38:17.919Z,99230.00
2022-12-26T11:39:17.933Z,99232.00
2022-12-26T11:40:17.998Z,99226.00
2022-12-26T11:41:17.970Z,99228.00
2022-12-26T11:42:17.991Z,99236.00
2022-12-26T11:43:17.999Z,99229.00
2022-12-26T11:44:18.030Z,99227.00
2022-12-26T11:45:18.054Z,99229.00
2022-12-26T11:46:18.124Z,99226.00